Airfield :







YOU CAN JOIN US ON...

 
LOGIN :

Register | Disclaimer

   EN    FR    IT 

 









Legend :    VFR   Marginal VFR   IFR   Intensive IFR   Very Intensive IFR
Visi :
Ceiling :
>= 8 km
>= 3000ft
5 to 8 km
1000 to 3000 ft
1500m to 5 km
500 to 1000 ft
800 to 1500m
200 to 500 ft
< 800m
< 200 ft
Symbols :   Thunderstorms  Fog  Heavy snow  Heavy precipitations  Wind > 20 kt






- Airport Elevation : 16 ft
- IATA code : FDF


TFFF - Aime Cesaire

CURRENT METAR :
  • 211030Z AUTO 07003KT 020V100 9999 BKN023 BKN032 BKN042 28/24 Q1014 TEMPO 3000 SHRA SCT018TCU BKN040

EXPIRED METARs :
  • 211000Z AUTO 09005KT 060V120 9999 FEW024 27/24 Q1014 TEMPO 3000 SHRA SCT018TCU BKN040
  • 210930Z AUTO 10007KT 9999 FEW025 27/24 Q1014 TEMPO 3000 SHRA SCT018TCU BKN040
  • 210900Z AUTO 09005KT 9999 SCT023 SCT029 BKN062 28/24 Q1014 TEMPO 3000 SHRA SCT018TCU BKN040
  • 210830Z AUTO 09006KT 060V120 9999 BKN023 BKN029 BKN040 28/24 Q1014 TEMPO 3000 SHRA SCT018TCU BKN040
  • 210800Z AUTO 09005KT 9999 SCT024 SCT033 28/24 Q1014 TEMPO 3000 SHRA SCT018TCU BKN040
  • 210730Z AUTO 10006KT 9999 SCT024 SCT035 BKN064 28/24 Q1014 TEMPO 3000 SHRA SCT018TCU BKN040
  • 210700Z AUTO 10006KT 9999 FEW023 SCT030 28/24 Q1014 TEMPO 3000 SHRA SCT018TCU BKN040
  • 210630Z AUTO 10008KT 9999 FEW021 28/24 Q1014 TEMPO 3000 SHRA SCT018TCU BKN040
  • 210600Z AUTO 10009KT 9999 FEW022 28/24 Q1014 TEMPO 3000 SHRA SCT018TCU BKN040

TAF TAF TFFF
Valid from the 21 at 06:00 until the 22 at 06:00 UTC


210500Z 2106/2206 10010KT 9999 SCT025 SCT040
PROB30
TEMPO 2106/2206 3000 SHRA SCT018TCU BKN040
TTZP FIR / North America



MET'MAP, your aeronautical weather chart ! - Copyright ORBIFLY December 2007 - Disclaimer

ORBIFLY MET'MAP TEAM :

Programming & Development : Alexandra Zaïnal
Original concept : Baudouin d'Aumeries
Technical & hardware support : Manuel Goepfert
Assistance : Marc-Olivier Méhu




SOURCES & CREDITS :

   NOAA